Time;durP1;ratioP1;P1;durP2;ratioP2;P2;SDS_P1;SDS_P2;PMS_P1;PMS_P2;Temp;Humidity;BMP_temperature;BMP_pressure;BME280_temperature;BME280_humidity;BME280_pressure;Samples;Min_cycle;Max_cycle;Signal;HPM_P1;HPM_P2
2022/07/17 00:00:50;;;;;;;;;;;;;;;19.75;67.94;101287.48;1635648;86;26382;-56
2022/07/17 00:03:17;;;;;;;;;;;;;;;19.71;68.04;101285.63;1637614;86;26029;-55
2022/07/17 00:05:44;;;;;;;;;;;;;;;19.71;68.05;101289.73;1656177;85;27465;-56
2022/07/17 00:08:12;;;;;;;;;;;;;;;19.69;67.86;101287.16;1650603;85;25516;-54
2022/07/17 00:10:41;;;;;;;;;;;;;;;19.68;67.89;101291.45;1651507;85;25937;-55
2022/07/17 00:13:08;;;;;;;;;;;;;;;19.66;68.83;101297.60;1648848;85;26902;-55
2022/07/17 00:15:34;;;;;;;;;;;;;;;19.60;68.40;101288.80;1648776;85;25908;-55
2022/07/17 00:18:01;;;;;;;;;;;;;;;19.57;69.16;101305.02;1656439;85;27569;-56
2022/07/17 00:20:29;;;;;;;;;;;;;;;19.53;68.86;101303.67;1661296;85;25919;-55
2022/07/17 00:22:56;;;;;;;;;;;;;;;19.51;69.11;101313.92;1651362;85;25839;-54
2022/07/17 00:25:23;;;;;;;;;;;;;;;19.47;68.76;101309.88;1644121;85;26258;-55
2022/07/17 00:27:50;;;;;;;;;;;;;;;19.43;68.67;101307.16;1658437;85;25794;-55
2022/07/17 00:30:17;;;;;;;;;;;;;;;19.36;69.10;101311.98;1661487;85;27455;-55
2022/07/17 00:32:44;;;;;;;;;;;;;;;19.28;69.10;101309.32;1650500;85;26086;-55
2022/07/17 00:35:11;;;;;;;;;;;;;;;19.22;68.76;101313.61;1664934;85;26469;-55
2022/07/17 00:37:40;;;;;;;;;;;;;;;19.16;69.31;101314.84;1658675;85;25734;-55
2022/07/17 00:40:08;;;;;;;;;;;;;;;19.06;69.02;101322.73;1660164;85;25912;-55
2022/07/17 00:42:35;;;;;;;;;;;;;;;19.00;68.82;101319.37;1654779;85;28222;-55
2022/07/17 00:45:03;;;;;;;;;;;;;;;18.96;68.97;101315.28;1656152;85;25843;-54
2022/07/17 00:47:30;;;;;;;;;;;;;;;18.92;69.35;101313.93;1669891;85;25801;-55
2022/07/17 00:49:57;;;;;;;;;;;;;;;18.80;69.07;101315.34;1668394;84;26188;-55
2022/07/17 00:52:23;;;;;;;;;;;;;;;18.77;69.60;101317.41;1666653;84;25939;-55
2022/07/17 00:54:50;;;;;;;;;;;;;;;18.74;69.27;101316.89;1660050;85;27502;-54
2022/07/17 00:57:19;;;;;;;;;;;;;;;18.72;69.39;101321.70;1669945;85;25950;-54
2022/07/17 00:59:45;;;;;;;;;;;;;;;18.71;69.54;101324.08;1648072;86;25721;-54
2022/07/17 01:02:13;;;;;;;;;;;;;;;18.68;69.47;101321.70;1635973;85;26293;-55
2022/07/17 01:04:40;;;;;;;;;;;;;;;18.62;69.71;101319.16;1659402;85;25801;-55
2022/07/17 01:07:07;;;;;;;;;;;;;;;18.58;69.82;101320.55;1670871;85;27486;-55
2022/07/17 01:09:34;;;;;;;;;;;;;;;18.51;69.74;101315.48;1670462;84;25924;-55
2022/07/17 01:12:01;;;;;;;;;;;;;;;18.49;69.84;101325.69;1671717;84;25542;-55
2022/07/17 01:14:28;;;;;;;;;;;;;;;18.46;69.90;101318.73;1667786;84;26351;-55
2022/07/17 01:16:54;;;;;;;;;;;;;;;18.46;69.98;101310.55;1674067;84;25725;-55
2022/07/17 01:19:21;;;;;;;;;;;;;;;18.44;70.08;101307.98;1672870;84;27486;-55
2022/07/17 01:21:50;;;;;;;;;;;;;;;18.44;70.25;101315.32;1672506;84;25852;-56
2022/07/17 01:24:19;;;;;;;;;;;;;;;18.41;69.91;101312.44;1670799;85;25784;-55
2022/07/17 01:26:48;;;;;;;;;;;;;;;18.40;70.12;101319.41;1669300;84;26536;-55
2022/07/17 01:29:16;;;;;;;;;;;;;;;18.38;70.15;101320.95;1664418;84;25951;-55
2022/07/17 01:31:42;;;;;;;;;;;;;;;18.35;70.11;101324.02;1672991;84;27729;-55
2022/07/17 01:34:10;;;;;;;;;;;;;;;18.33;70.37;101327.45;1670098;84;25859;-55
2022/07/17 01:36:37;;;;;;;;;;;;;;;18.34;70.41;101328.28;1671613;84;25804;-56
2022/07/17 01:39:04;;;;;;;;;;;;;;;18.31;70.60;101326.77;1671169;84;26923;-53
2022/07/17 01:41:31;;;;;;;;;;;;;;;18.33;70.79;101333.39;1672841;84;25833;-54
2022/07/17 01:43:58;;;;;;;;;;;;;;;18.30;70.45;101329.98;1670530;84;27484;-55
2022/07/17 01:46:26;;;;;;;;;;;;;;;18.26;70.32;101330.00;1660706;84;25835;-55
2022/07/17 01:48:52;;;;;;;;;;;;;;;18.24;70.66;101328.48;1667911;84;25776;-55
2022/07/17 01:51:19;;;;;;;;;;;;;;;18.21;70.67;101328.82;1674948;84;26868;-54
2022/07/17 01:53:45;;;;;;;;;;;;;;;18.19;70.77;101329.00;1672154;84;25754;-54
2022/07/17 01:56:12;;;;;;;;;;;;;;;18.13;70.90;101322.38;1672224;84;27426;-55
2022/07/17 01:58:39;;;;;;;;;;;;;;;18.06;70.93;101317.78;1654667;84;25807;-55
2022/07/17 02:01:05;;;;;;;;;;;;;;;18.02;70.88;101317.28;1662132;85;25879;-54
2022/07/17 02:03:32;;;;;;;;;;;;;;;17.98;71.10;101319.98;1670802;85;26107;-55
2022/07/17 02:05:59;;;;;;;;;;;;;;;17.97;71.32;101319.16;1667617;85;25681;-55
2022/07/17 02:08:25;;;;;;;;;;;;;;;17.96;71.33;101323.42;1664743;85;27491;-54
2022/07/17 02:10:51;;;;;;;;;;;;;;;17.92;71.32;101328.33;1668378;85;26872;-55
2022/07/17 02:13:18;;;;;;;;;;;;;;;17.88;71.41;101325.59;1663996;85;25454;-55
2022/07/17 02:15:45;;;;;;;;;;;;;;;17.86;71.41;101326.80;1668103;85;26151;-55
2022/07/17 02:18:12;;;;;;;;;;;;;;;17.83;71.40;101323.91;1654437;85;25869;-55
2022/07/17 02:20:41;;;;;;;;;;;;;;;17.82;71.40;101329.00;1669335;85;27564;-53
2022/07/17 02:23:08;;;;;;;;;;;;;;;17.79;71.41;101331.56;1663360;85;25437;-55
2022/07/17 02:29:43;;;;;;;;;;;;;;;17.82;71.79;101330.37;1686046;83;25876;-54
2022/07/17 02:32:10;;;;;;;;;;;;;;;17.78;71.44;101329.86;1685911;83;26003;-55
2022/07/17 02:34:37;;;;;;;;;;;;;;;17.77;71.24;101334.96;1685398;84;27475;-55
2022/07/17 02:37:04;;;;;;;;;;;;;;;17.73;71.74;101336.30;1689487;83;25816;-55
2022/07/17 02:39:30;;;;;;;;;;;;;;;17.65;71.61;101331.73;1687001;83;25932;-55
2022/07/17 02:41:57;;;;;;;;;;;;;;;17.65;71.94;101339.02;1680858;84;26122;-54
2022/07/17 02:44:24;;;;;;;;;;;;;;;17.63;71.97;101336.98;1682975;83;25865;-55
2022/07/17 02:46:50;;;;;;;;;;;;;;;17.61;71.86;101348.56;1684282;83;27623;-55
2022/07/17 02:49:17;;;;;;;;;;;;;;;17.61;72.17;101355.36;1668542;84;25780;-54
2022/07/17 02:51:43;;;;;;;;;;;;;;;17.62;72.26;101363.84;1679046;83;25724;-55
2022/07/17 02:54:10;;;;;;;;;;;;;;;17.64;72.10;101374.05;1676049;83;26073;-53
2022/07/17 02:56:36;;;;;;;;;;;;;;;17.64;72.12;101373.56;1663696;84;25675;-54
2022/07/17 02:59:03;;;;;;;;;;;;;;;17.64;71.89;101376.28;1695504;82;27511;-56
2022/07/17 03:01:29;;;;;;;;;;;;;;;17.64;71.81;101370.84;1709343;81;26412;-54
2022/07/17 03:03:56;;;;;;;;;;;;;;;17.65;72.01;101373.03;1704458;82;25859;-54
2022/07/17 03:06:22;;;;;;;;;;;;;;;17.61;71.67;101373.88;1709075;82;26005;-54
2022/07/17 03:08:50;;;;;;;;;;;;;;;17.50;71.70;101373.70;1705208;83;27238;-55
2022/07/17 03:11:17;;;;;;;;;;;;;;;17.48;71.93;101374.38;1709462;83;27572;-55
2022/07/17 03:13:43;;;;;;;;;;;;;;;17.49;72.01;101374.72;1702606;83;25728;-56
2022/07/17 03:16:10;;;;;;;;;;;;;;;17.52;72.13;101374.39;1708711;83;25833;-56
2022/07/17 03:18:36;;;;;;;;;;;;;;;17.56;72.25;101397.16;1703051;83;26285;-54
2022/07/17 03:21:03;;;;;;;;;;;;;;;17.56;72.82;101422.52;1713866;83;27237;-54
2022/07/17 03:23:30;;;;;;;;;;;;;;;17.50;74.07;101437.63;1700306;82;28545;-55
2022/07/17 03:25:58;;;;;;;;;;;;;;;17.44;73.81;101423.31;1709713;83;25737;-55
2022/07/17 03:28:24;;;;;;;;;;;;;;;17.45;75.77;101422.30;1696120;83;25662;-55
2022/07/17 03:30:50;;;;;;;;;;;;;;;17.40;75.67;101431.96;1706644;83;26069;-54
2022/07/17 03:33:17;;;;;;;;;;;;;;;17.42;75.60;101436.24;1702657;83;25867;-54
2022/07/17 03:35:43;;;;;;;;;;;;;;;17.47;76.22;101426.23;1709434;82;27526;-54
2022/07/17 03:38:10;;;;;;;;;;;;;;;17.49;76.22;101435.05;1709914;83;25998;-55
2022/07/17 03:40:36;;;;;;;;;;;;;;;17.49;76.16;101430.97;1711649;83;25709;-55
2022/07/17 03:43:03;;;;;;;;;;;;;;;17.51;76.05;101435.25;1714414;82;26119;-55
2022/07/17 03:45:29;;;;;;;;;;;;;;;17.55;75.68;101436.27;1707253;83;27293;-56
2022/07/17 03:47:56;;;;;;;;;;;;;;;17.55;75.46;101438.98;1695579;83;27485;-54
2022/07/17 03:50:23;;;;;;;;;;;;;;;17.59;75.48;101452.61;1682366;83;27203;-55
2022/07/17 03:52:49;;;;;;;;;;;;;;;17.63;75.30;101454.83;1689231;83;25834;-56
2022/07/17 03:55:16;;;;;;;;;;;;;;;17.65;75.11;101456.02;1693989;83;26179;-53
2022/07/17 03:57:43;;;;;;;;;;;;;;;17.63;75.35;101452.11;1686508;83;25941;-55
2022/07/17 04:00:11;;;;;;;;;;;;;;;17.65;75.18;101460.97;1661863;83;27503;-56
2022/07/17 04:02:42;;;;;;;;;;;;;;;17.65;74.63;101460.09;1664790;85;25849;-55
2022/07/17 04:05:09;;;;;;;;;;;;;;;17.66;74.62;101456.36;1683278;83;25455;-54
2022/07/17 04:07:40;;;;;;;;;;;;;;;17.71;74.17;101457.22;1675414;83;26937;-55
2022/07/17 04:10:09;;;;;;;;;;;;;;;17.72;73.95;101461.13;1682921;83;25788;-56
2022/07/17 04:12:39;;;;;;;;;;;;;;;17.78;73.68;101465.05;1684957;82;27455;-56
2022/07/17 04:15:08;;;;;;;;;;;;;;;17.77;72.58;101465.58;1675591;83;26057;-55
2022/07/17 04:17:35;;;;;;;;;;;;;;;17.79;72.05;101476.28;1694882;81;25889;-56
2022/07/17 04:20:02;;;;;;;;;;;;;;;17.82;71.32;101480.05;1696901;83;26114;-56
2022/07/17 04:22:29;;;;;;;;;;;;;;;17.86;71.06;101480.56;1678922;83;26554;-55
2022/07/17 04:24:56;;;;;;;;;;;;;;;17.87;70.41;101484.98;1686627;82;27643;-56
2022/07/17 04:27:22;;;;;;;;;;;;;;;17.89;68.71;101486.52;1684151;83;25729;-56
2022/07/17 04:29:48;;;;;;;;;;;;;;;17.95;68.53;101495.89;1671896;83;25856;-56
2022/07/17 04:32:15;;;;;;;;;;;;;;;18.01;68.04;101495.24;1677239;83;26103;-56
2022/07/17 04:34:41;;;;;;;;;;;;;;;18.09;67.34;101502.58;1691435;82;25447;-56
2022/07/17 04:37:08;;;;;;;;;;;;;;;18.14;66.35;101494.75;1683221;82;27510;-56
2022/07/17 04:39:34;;;;;;;;;;;;;;;18.19;65.66;101497.83;1674438;82;25966;-55
2022/07/17 04:42:02;;;;;;;;;;;;;;;18.25;65.37;101501.23;1678752;82;25836;-55
2022/07/17 04:44:28;;;;;;;;;;;;;;;18.32;63.37;101501.41;1674364;83;26164;-55
2022/07/17 04:46:56;;;;;;;;;;;;;;;18.37;62.95;101501.74;1667000;82;25507;-55
2022/07/17 04:49:22;;;;;;;;;;;;;;;18.44;62.66;101509.57;1668988;84;27600;-56
2022/07/17 04:51:49;;;;;;;;;;;;;;;18.53;61.77;101515.02;1677715;84;25707;-56
2022/07/17 04:54:15;;;;;;;;;;;;;;;18.61;60.94;101512.28;1687576;84;25729;-56
2022/07/17 04:56:42;;;;;;;;;;;;;;;18.68;61.50;101514.69;1672301;84;26118;-56
2022/07/17 04:59:08;;;;;;;;;;;;;;;18.78;61.10;101524.03;1690538;82;25466;-56
2022/07/17 05:01:35;;;;;;;;;;;;;;;18.85;59.73;101522.84;1703381;81;27479;-56
2022/07/17 05:04:02;;;;;;;;;;;;;;;18.92;58.10;101519.76;1679696;83;25825;-57
2022/07/17 05:06:29;;;;;;;;;;;;;;;18.92;58.79;101531.53;1711962;83;25724;-56
2022/07/17 05:08:55;;;;;;;;;;;;;;;19.01;59.01;101533.74;1699605;83;26114;-54
2022/07/17 05:11:22;;;;;;;;;;;;;;;19.05;59.08;101530.99;1699728;82;25942;-55
2022/07/17 05:13:48;;;;;;;;;;;;;;;19.07;58.33;101532.20;1707468;83;27441;-54
2022/07/17 05:16:15;;;;;;;;;;;;;;;19.12;58.16;101530.31;1700797;83;25439;-57
2022/07/17 05:18:41;;;;;;;;;;;;;;;19.11;58.48;101529.98;1702911;83;25753;-54
2022/07/17 05:21:08;;;;;;;;;;;;;;;19.11;57.75;101534.06;1713127;82;28288;-54
2022/07/17 05:23:35;;;;;;;;;;;;;;;19.10;58.71;101541.38;1705765;83;25740;-55
2022/07/17 05:26:04;;;;;;;;;;;;;;;19.11;58.44;101534.91;1701773;83;27402;-57
2022/07/17 05:28:30;;;;;;;;;;;;;;;19.15;57.56;101543.09;1704823;83;25810;-55
2022/07/17 05:30:57;;;;;;;;;;;;;;;19.16;57.71;101546.66;1701506;82;25891;-56
2022/07/17 05:33:23;;;;;;;;;;;;;;;19.18;57.62;101549.57;1711949;83;26121;-53
2022/07/17 05:35:50;;;;;;;;;;;;;;;19.23;57.60;101559.43;1703275;83;25658;-57
2022/07/17 05:38:17;;;;;;;;;;;;;;;19.26;57.55;101560.12;1708280;83;27515;-56
2022/07/17 05:40:43;;;;;;;;;;;;;;;19.26;57.81;101566.41;1703568;83;26404;-54
2022/07/17 05:43:10;;;;;;;;;;;;;;;19.27;57.81;101566.75;1708085;83;25467;-56
2022/07/17 05:45:38;;;;;;;;;;;;;;;19.31;56.90;101569.48;1702250;82;27162;-54
2022/07/17 05:48:06;;;;;;;;;;;;;;;19.34;57.40;101577.30;1694581;82;25877;-55
2022/07/17 05:50:34;;;;;;;;;;;;;;;19.38;56.83;101566.88;1700104;83;27446;-55
2022/07/17 05:53:01;;;;;;;;;;;;;;;19.40;55.97;101570.30;1696617;83;25762;-55
2022/07/17 05:55:28;;;;;;;;;;;;;;;19.33;55.10;101576.95;1693360;83;26125;-56
2022/07/17 05:57:54;;;;;;;;;;;;;;;19.34;55.57;101577.30;1681445;83;26108;-55
2022/07/17 06:00:21;;;;;;;;;;;;;;;19.36;54.90;101574.41;1662130;84;25825;-55
2022/07/17 06:02:48;;;;;;;;;;;;;;;19.41;55.24;101575.25;1667265;85;27475;-55
2022/07/17 06:05:14;;;;;;;;;;;;;;;19.47;54.28;101576.74;1668993;83;25862;-54
2022/07/17 06:07:41;;;;;;;;;;;;;;;19.55;52.74;101576.72;1682527;83;25498;-56
2022/07/17 06:10:09;;;;;;;;;;;;;;;19.55;51.76;101570.42;1686862;82;26121;-56
2022/07/17 06:12:36;;;;;;;;;;;;;;;19.53;52.73;101574.70;1683008;82;25853;-56
2022/07/17 06:15:03;;;;;;;;;;;;;;;19.59;53.54;101572.28;1677689;83;27539;-56
2022/07/17 06:17:30;;;;;;;;;;;;;;;19.59;53.45;101578.57;1676587;83;25837;-56
2022/07/17 06:19:56;;;;;;;;;;;;;;;19.63;51.91;101575.84;1672365;82;25634;-56
2022/07/17 06:22:23;;;;;;;;;;;;;;;19.63;52.71;101586.77;1675937;82;26354;-56
2022/07/17 06:24:49;;;;;;;;;;;;;;;19.67;52.31;101579.94;1671819;83;25736;-57
2022/07/17 06:27:16;;;;;;;;;;;;;;;19.74;52.03;101585.52;1687522;83;28284;-57
2022/07/17 06:29:43;;;;;;;;;;;;;;;19.84;50.69;101584.79;1681673;83;25697;-56
2022/07/17 06:32:09;;;;;;;;;;;;;;;19.89;50.44;101584.29;1682797;83;26126;-56
2022/07/17 06:34:37;;;;;;;;;;;;;;;20.03;50.46;101586.78;1680819;82;26956;-57
2022/07/17 06:37:04;;;;;;;;;;;;;;;20.11;50.01;101574.44;1685263;82;25739;-55
2022/07/17 06:39:30;;;;;;;;;;;;;;;20.13;49.53;101587.91;1686686;83;27481;-57
2022/07/17 06:42:01;;;;;;;;;;;;;;;20.03;48.05;101586.78;1684047;83;25665;-55
2022/07/17 06:44:26;;;;;;;;;;;;;;;20.04;48.81;101591.22;1677563;83;25750;-55
2022/07/17 06:46:52;;;;;;;;;;;;;;;19.99;49.04;101585.45;1700805;83;26161;-55
2022/07/17 06:49:19;;;;;;;;;;;;;;;20.11;49.77;101587.27;1700882;83;25451;-55
2022/07/17 06:51:47;;;;;;;;;;;;;;;20.26;49.63;101586.81;1688495;83;28471;-55
2022/07/17 06:54:15;;;;;;;;;;;;;;;20.38;48.84;101586.41;1693988;83;25778;-55
2022/07/17 06:56:43;;;;;;;;;;;;;;;20.50;49.74;101586.30;1698507;82;25721;-55
2022/07/17 06:59:11;;;;;;;;;;;;;;;20.69;48.51;101581.38;1676617;83;25861;-55
2022/07/17 07:01:38;;;;;;;;;;;;;;;20.70;48.82;101589.41;1675166;84;25475;-55
2022/07/17 07:04:04;;;;;;;;;;;;;;;20.62;49.04;101588.08;1660268;84;27666;-54
2022/07/17 07:06:31;;;;;;;;;;;;;;;20.54;49.34;101599.95;1672788;84;27265;-56
2022/07/17 07:08:59;;;;;;;;;;;;;;;20.37;48.87;101599.73;1638063;86;25858;-54
2022/07/17 07:11:26;;;;;;;;;;;;;;;20.09;48.72;101591.52;1622158;87;26129;-54
2022/07/17 07:13:52;;;;;;;;;;;;;;;20.12;49.84;101597.16;1615468;88;25797;-55
2022/07/17 07:16:20;;;;;;;;;;;;;;;20.06;48.62;101600.09;1625367;87;27497;-56
2022/07/17 07:18:49;;;;;;;;;;;;;;;19.64;49.22;101565.77;1679848;85;25783;-54
2022/07/17 07:21:22;;;;;;;;;;;;;;;19.80;49.58;101608.53;1665370;85;25792;-56
2022/07/17 07:23:44;;;;;;;;;;;;;;;19.70;48.90;101598.67;1636348;86;26131;-56
2022/07/17 07:26:11;;;;;;;;;;;;;;;19.70;49.65;101600.56;1619613;88;25738;-54
2022/07/17 07:28:37;;;;;;;;;;;;;;;19.81;50.55;101590.59;1635018;86;28122;-56
2022/07/17 07:31:04;;;;;;;;;;;;;;;19.94;49.48;101596.91;1639839;87;25663;-56
2022/07/17 07:33:30;;;;;;;;;;;;;;;19.97;49.12;101589.70;1642472;87;25808;-55
2022/07/17 07:35:57;;;;;;;;;;;;;;;20.08;49.74;101589.81;1642498;87;26159;-54
2022/07/17 07:38:23;;;;;;;;;;;;;;;20.37;49.93;101603.83;1638814;86;26343;-55
2022/07/17 07:40:50;;;;;;;;;;;;;;;20.59;48.51;101595.30;1640320;87;28254;-55
2022/07/17 07:43:16;;;;;;;;;;;;;;;20.90;48.66;101599.84;1646372;86;25950;-55
2022/07/17 07:45:43;;;;;;;;;;;;;;;21.13;48.08;101604.44;1645945;86;25512;-55
2022/07/17 07:48:09;;;;;;;;;;;;;;;21.33;47.34;101608.84;1641491;86;26879;-54
2022/07/17 07:50:36;;;;;;;;;;;;;;;21.38;46.51;101609.98;1669922;85;25823;-55
2022/07/17 07:53:02;;;;;;;;;;;;;;;21.42;46.37;101622.78;1646289;86;27547;-55
2022/07/17 07:55:29;;;;;;;;;;;;;;;21.51;46.83;101616.17;1703880;82;26347;-55
2022/07/17 07:58:08;;;;;;;;;;;;;;;21.61;45.24;101615.91;1678553;83;25783;-56
2022/07/17 08:00:35;;;;;;;;;;;;;;;21.55;45.43;101622.98;1659379;83;27209;-56
2022/07/17 08:03:02;;;;;;;;;;;;;;;21.55;45.73;101621.62;1676667;83;25756;-55
2022/07/17 08:05:29;;;;;;;;;;;;;;;21.56;45.39;101626.03;1665724;84;26884;-56
2022/07/17 08:07:56;;;;;;;;;;;;;;;21.53;44.30;101617.34;1662289;84;25865;-56
2022/07/17 08:10:23;;;;;;;;;;;;;;;21.47;44.16;101629.89;1659762;84;25745;-55
2022/07/17 08:12:50;;;;;;;;;;;;;;;21.46;45.12;101621.38;1662428;84;26083;-55
2022/07/17 08:15:19;;;;;;;;;;;;;;;21.44;44.76;101626.19;1667996;84;26039;-56
2022/07/17 08:17:46;;;;;;;;;;;;;;;21.38;45.59;101626.94;1663463;84;27568;-56
2022/07/17 08:20:14;;;;;;;;;;;;;;;21.41;46.01;101625.18;1665176;84;25742;-56
2022/07/17 08:22:42;;;;;;;;;;;;;;;21.46;46.17;101630.95;1672010;84;25910;-56
2022/07/17 08:25:09;;;;;;;;;;;;;;;21.47;45.55;101631.80;1675770;83;26256;-55
2022/07/17 08:27:37;;;;;;;;;;;;;;;21.48;46.19;101631.59;1675362;84;25997;-56
2022/07/17 08:30:06;;;;;;;;;;;;;;;21.56;46.21;101632.03;1658020;84;28218;-54
2022/07/17 08:32:32;;;;;;;;;;;;;;;21.57;45.83;101631.84;1663855;83;25849;-56
2022/07/17 08:34:59;;;;;;;;;;;;;;;21.53;46.35;101627.80;1671784;84;25855;-55
2022/07/17 08:37:26;;;;;;;;;;;;;;;21.50;46.79;101632.27;1660511;83;26178;-55
2022/07/17 08:39:56;;;;;;;;;;;;;;;21.53;45.98;101627.80;1661333;83;26023;-56
2022/07/17 08:42:31;;;;;;;;;;;;;;;21.60;45.40;101627.06;1659718;84;27475;-56
2022/07/17 08:44:53;;;;;;;;;;;;;;;21.71;46.37;101634.81;1647406;86;26086;-57
2022/07/17 08:47:21;;;;;;;;;;;;;;;21.63;45.10;101634.91;1641264;85;25884;-55
2022/07/17 08:49:49;;;;;;;;;;;;;;;21.75;45.79;101636.65;1649773;85;26220;-56
2022/07/17 08:52:16;;;;;;;;;;;;;;;21.94;45.04;101625.12;1645637;85;25820;-56
2022/07/17 08:54:42;;;;;;;;;;;;;;;22.16;44.43;101626.52;1648594;85;27496;-56
2022/07/17 08:57:09;;;;;;;;;;;;;;;22.40;44.52;101625.36;1666849;85;25832;-57
2022/07/17 08:59:35;;;;;;;;;;;;;;;22.58;44.25;101625.44;1662937;85;25713;-57
2022/07/17 09:02:04;;;;;;;;;;;;;;;22.64;41.07;101625.52;1666188;84;26297;-56
2022/07/17 09:04:30;;;;;;;;;;;;;;;22.68;40.84;101630.08;1660400;85;27381;-57
2022/07/17 09:07:02;;;;;;;;;;;;;;;22.80;41.49;101623.03;1666162;84;27489;-57
2022/07/17 09:09:29;;;;;;;;;;;;;;;22.98;41.31;101626.66;1647071;85;25847;-57
2022/07/17 09:11:58;;;;;;;;;;;;;;;23.07;41.30;101626.00;1660911;84;25780;-57
2022/07/17 09:14:37;;;;;;;;;;;;;;;23.03;41.57;101631.55;1652083;85;26312;-56
2022/07/17 09:17:05;;;;;;;;;;;;;;;23.05;40.53;101629.46;1657850;85;25862;-56
2022/07/17 09:19:37;;;;;;;;;;;;;;;22.98;39.86;101630.77;1659900;85;27480;-56
2022/07/17 09:22:13;;;;;;;;;;;;;;;22.95;40.48;101632.53;1656917;85;25791;-55
2022/07/17 09:24:43;;;;;;;;;;;;;;;23.27;39.02;101626.69;1659645;85;25932;-54
2022/07/17 09:27:12;;;;;;;;;;;;;;;23.53;39.51;101632.06;1660687;85;26269;-55
2022/07/17 09:30:00;;;;;;;;;;;;;;;23.83;39.16;101634.02;1657169;85;26119;-55
2022/07/17 09:32:30;;;;;;;;;;;;;;;24.13;39.55;101624.66;1660898;85;27457;-57
2022/07/17 09:34:58;;;;;;;;;;;;;;;24.41;38.09;101623.69;1658125;85;25848;-57
2022/07/17 09:37:26;;;;;;;;;;;;;;;24.63;37.65;101627.12;1654037;85;25852;-57
2022/07/17 09:39:57;;;;;;;;;;;;;;;24.93;37.94;101622.09;1656104;85;26162;-56
2022/07/17 09:42:24;;;;;;;;;;;;;;;25.20;36.11;101626.20;1660665;85;25819;-57
2022/07/17 09:44:59;;;;;;;;;;;;;;;25.55;34.50;101615.48;1661619;85;27545;-57
2022/07/17 09:47:27;;;;;;;;;;;;;;;25.91;33.50;101614.93;1624003;86;25736;-57
2022/07/17 09:49:55;;;;;;;;;;;;;;;26.15;32.88;101622.16;1634269;86;25711;-57
2022/07/17 09:52:24;;;;;;;;;;;;;;;26.25;32.58;101618.95;1627333;86;26956;-57
2022/07/17 09:54:53;;;;;;;;;;;;;;;26.42;31.36;101619.80;1631439;86;25768;-57
2022/07/17 09:57:25;;;;;;;;;;;;;;;26.47;32.72;101614.45;1637491;86;27490;-56
2022/07/17 10:00:05;;;;;;;;;;;;;;;26.79;32.82;101623.59;1632896;86;25880;-56
2022/07/17 10:02:34;;;;;;;;;;;;;;;27.24;32.29;101621.20;1617402;86;25885;-56
2022/07/17 10:07:46;;;;;;;;;;;;;;;27.41;31.56;101615.08;1640332;85;25828;-56
2022/07/17 10:10:15;;;;;;;;;;;;;;;27.76;29.22;101611.73;1633438;86;27587;-56
2022/07/17 10:12:44;;;;;;;;;;;;;;;27.89;30.23;101607.96;1647217;86;25857;-57
2022/07/17 10:15:11;;;;;;;;;;;;;;;28.03;28.65;101597.58;1622078;86;25828;-56
2022/07/17 10:17:38;;;;;;;;;;;;;;;28.26;29.21;101605.16;1641745;85;26475;-56
2022/07/17 10:20:06;;;;;;;;;;;;;;;28.47;29.37;101596.00;1638080;86;25739;-56
2022/07/17 10:22:45;;;;;;;;;;;;;;;29.00;28.55;101598.48;1647153;86;28113;-56
2022/07/17 10:25:15;;;;;;;;;;;;;;;29.46;28.91;101591.79;1624347;85;25943;-56
2022/07/17 10:27:51;;;;;;;;;;;;;;;30.17;27.51;101594.38;1632564;86;26791;-56
2022/07/17 10:30:26;;;;;;;;;;;;;;;30.49;26.21;101598.55;1636923;85;26152;-57
2022/07/17 10:32:55;;;;;;;;;;;;;;;30.95;26.22;101592.98;1642267;86;26467;-57
2022/07/17 10:35:22;;;;;;;;;;;;;;;31.48;25.43;101586.53;1640269;86;27180;-58
2022/07/17 10:37:49;;;;;;;;;;;;;;;31.88;25.14;101582.63;1637942;86;25922;-57
2022/07/17 10:40:22;;;;;;;;;;;;;;;32.20;23.90;101587.41;1628989;85;25753;-57
2022/07/17 10:43:02;;;;;;;;;;;;;;;32.54;22.33;101584.97;1627085;86;26343;-57
2022/07/17 10:45:43;;;;;;;;;;;;;;;32.83;22.77;101581.90;1631205;86;25975;-57
2022/07/17 10:48:12;;;;;;;;;;;;;;;32.88;21.82;101574.42;1635570;86;28291;-57
2022/07/17 10:50:42;;;;;;;;;;;;;;;33.19;23.24;101569.03;1650732;85;26040;-56
2022/07/17 10:53:20;;;;;;;;;;;;;;;33.32;22.45;101567.73;1671001;84;25490;-58
2022/07/17 10:55:50;;;;;;;;;;;;;;;32.99;21.06;101563.34;1640291;86;26082;-56
2022/07/17 10:58:20;;;;;;;;;;;;;;;33.10;21.83;101563.67;1664542;84;25713;-57
2022/07/17 11:01:05;;;;;;;;;;;;;;;33.25;21.91;101562.93;1678649;83;27533;-57
2022/07/17 11:03:37;;;;;;;;;;;;;;;33.45;21.17;101559.42;1681367;83;26121;-57
2022/07/17 11:06:20;;;;;;;;;;;;;;;33.66;20.25;101552.54;1641781;85;25707;-58
2022/07/17 11:09:00;;;;;;;;;;;;;;;33.68;19.67;101556.73;1797573;79;25528;-56
2022/07/17 11:11:40;;;;;;;;;;;;;;;33.61;20.32;101556.15;1757301;81;27249;-56
2022/07/17 11:14:16;;;;;;;;;;;;;;;33.92;20.72;101556.83;1754607;81;28577;-56
2022/07/17 11:16:57;;;;;;;;;;;;;;;33.95;20.58;101565.48;1755712;81;25691;-56
2022/07/17 11:19:38;;;;;;;;;;;;;;;34.00;20.29;101565.52;1754241;80;25753;-56
2022/07/17 11:22:07;;;;;;;;;;;;;;;34.05;19.62;101563.30;1755804;80;25874;-55
2022/07/17 11:24:43;;;;;;;;;;;;;;;34.17;19.69;101571.41;1754426;81;25607;-56
2022/07/17 11:27:24;;;;;;;;;;;;;;;34.14;18.64;101557.98;1754573;81;27588;-56
2022/07/17 11:29:53;;;;;;;;;;;;;;;34.50;18.46;101562.23;1749970;82;25723;-56
2022/07/17 11:32:19;;;;;;;;;;;;;;;34.79;17.57;101569.47;1751345;80;25727;-56
2022/07/17 11:34:46;;;;;;;;;;;;;;;34.62;19.08;101566.98;1754148;81;25593;-56
2022/07/17 11:37:13;;;;;;;;;;;;;;;34.80;17.82;101568.93;1754769;81;26075;-56
2022/07/17 11:39:46;;;;;;;;;;;;;;;34.75;18.11;101565.58;1755851;80;27477;-56
2022/07/17 11:42:17;;;;;;;;;;;;;;;34.76;18.32;101567.26;1754361;81;27328;-56
2022/07/17 11:44:45;;;;;;;;;;;;;;;35.16;18.30;101579.22;1751070;81;25483;-56
2022/07/17 11:47:15;;;;;;;;;;;;;;;35.23;17.85;101565.80;1753805;81;25817;-56
2022/07/17 11:49:42;;;;;;;;;;;;;;;35.47;17.67;101574.97;1750408;81;25688;-56
2022/07/17 11:52:14;;;;;;;;;;;;;;;34.59;18.60;101563.34;1756949;80;27838;-56
2022/07/17 11:54:52;;;;;;;;;;;;;;;34.43;18.93;101564.47;1757311;81;25697;-56
2022/07/17 11:57:19;;;;;;;;;;;;;;;34.98;18.35;101565.30;1757023;81;25791;-56
2022/07/17 11:59:46;;;;;;;;;;;;;;;35.20;18.06;101561.59;1755821;81;25723;-56
2022/07/17 12:02:14;;;;;;;;;;;;;;;35.29;18.34;101559.06;1755915;81;25793;-56
2022/07/17 12:04:53;;;;;;;;;;;;;;;35.66;18.13;101562.56;1756486;81;28118;-56
2022/07/17 12:07:21;;;;;;;;;;;;;;;35.34;17.58;101567.42;1756903;81;26480;-56
2022/07/17 12:09:48;;;;;;;;;;;;;;;34.37;18.87;101571.15;1757549;81;25773;-56
2022/07/17 12:12:22;;;;;;;;;;;;;;;34.12;19.34;101569.44;1757478;81;26664;-55
2022/07/17 12:14:59;;;;;;;;;;;;;;;34.84;18.68;101570.02;1757552;80;25480;-56
2022/07/17 12:17:40;;;;;;;;;;;;;;;35.61;17.89;101562.59;1757530;81;27522;-56
2022/07/17 12:20:08;;;;;;;;;;;;;;;35.58;17.12;101552.83;1756716;81;25778;-56
2022/07/17 12:22:48;;;;;;;;;;;;;;;35.85;17.40;101561.36;1757273;81;26300;-56
2022/07/17 12:25:27;;;;;;;;;;;;;;;36.14;16.40;101555.87;1756845;81;25753;-56
2022/07/17 12:27:54;;;;;;;;;;;;;;;34.87;17.96;101566.67;1757416;81;25754;-56
2022/07/17 12:30:21;;;;;;;;;;;;;;;33.55;18.37;101574.81;1756643;81;29649;-56
2022/07/17 12:32:47;;;;;;;;;;;;;;;32.07;19.35;101561.40;1756883;81;25711;-56
2022/07/17 12:35:14;;;;;;;;;;;;;;;32.82;20.12;101574.08;1756958;81;25705;-56
2022/07/17 12:37:41;;;;;;;;;;;;;;;33.89;19.18;101569.95;1757010;81;25431;-56
2022/07/17 12:40:09;;;;;;;;;;;;;;;34.00;18.31;101562.72;1757007;81;25719;-56
2022/07/17 12:42:36;;;;;;;;;;;;;;;33.18;19.11;101572.09;1757160;81;28470;-56
2022/07/17 12:45:04;;;;;;;;;;;;;;;32.42;19.46;101572.05;1756946;81;25658;-55
2022/07/17 12:47:30;;;;;;;;;;;;;;;31.59;19.74;101568.06;1751685;81;26413;-55